sensor_id;sensor_type;location;lat;lon;timestamp;pressure;altitude;pressure_sealevel;temperature;humidity
26697;BME280;14312;52.614;13.496;2023-06-14T00:00:45;101168.16;;;16.86;44.26
26697;BME280;14312;52.614;13.496;2023-06-14T00:03:31;101165.72;;;16.84;44.37
26697;BME280;14312;52.614;13.496;2023-06-14T00:06:18;101157.66;;;16.79;44.35
26697;BME280;14312;52.614;13.496;2023-06-14T00:09:04;101159.00;;;16.77;44.37
26697;BME280;14312;52.614;13.496;2023-06-14T00:11:50;101154.41;;;16.72;44.51
26697;BME280;14312;52.614;13.496;2023-06-14T00:14:36;101171.63;;;16.71;44.45
26697;BME280;14312;52.614;13.496;2023-06-14T00:17:22;101171.38;;;16.68;44.70
26697;BME280;14312;52.614;13.496;2023-06-14T00:20:09;101175.66;;;16.64;44.66
26697;BME280;14312;52.614;13.496;2023-06-14T00:22:56;101173.75;;;16.59;44.60
26697;BME280;14312;52.614;13.496;2023-06-14T00:25:42;101175.63;;;16.54;44.83
26697;BME280;14312;52.614;13.496;2023-06-14T00:28:28;101172.91;;;16.49;44.79
26697;BME280;14312;52.614;13.496;2023-06-14T00:31:14;101175.84;;;16.42;44.87
26697;BME280;14312;52.614;13.496;2023-06-14T00:34:00;101176.41;;;16.34;45.02
26697;BME280;14312;52.614;13.496;2023-06-14T00:36:46;101176.63;;;16.27;44.99
26697;BME280;14312;52.614;13.496;2023-06-14T00:39:32;101178.47;;;16.22;45.26
26697;BME280;14312;52.614;13.496;2023-06-14T00:42:25;101178.72;;;16.15;46.70
26697;BME280;14312;52.614;13.496;2023-06-14T00:45:12;101180.59;;;16.10;45.45
26697;BME280;14312;52.614;13.496;2023-06-14T00:47:58;101176.28;;;16.03;45.49
26697;BME280;14312;52.614;13.496;2023-06-14T00:50:45;101176.25;;;15.98;45.73
26697;BME280;14312;52.614;13.496;2023-06-14T00:53:34;101174.09;;;15.95;45.96
26697;BME280;14312;52.614;13.496;2023-06-14T00:56:21;101174.59;;;15.92;45.85
26697;BME280;14312;52.614;13.496;2023-06-14T00:59:08;101171.38;;;15.90;46.04
26697;BME280;14312;52.614;13.496;2023-06-14T01:01:56;101168.94;;;15.89;46.38
26697;BME280;14312;52.614;13.496;2023-06-14T01:04:45;101171.63;;;15.89;46.66
26697;BME280;14312;52.614;13.496;2023-06-14T01:11:02;101170.56;;;15.90;48.13
26697;BME280;14312;52.614;13.496;2023-06-14T01:13:51;101169.47;;;15.86;47.01
26697;BME280;14312;52.614;13.496;2023-06-14T01:16:39;101168.69;;;15.90;46.91
26697;BME280;14312;52.614;13.496;2023-06-14T01:19:26;101174.59;;;15.92;47.02
26697;BME280;14312;52.614;13.496;2023-06-14T01:22:14;101175.69;;;15.91;47.15
26697;BME280;14312;52.614;13.496;2023-06-14T01:25:00;101172.47;;;15.94;47.01
26697;BME280;14312;52.614;13.496;2023-06-14T01:27:57;101182.16;;;15.95;47.30
26697;BME280;14312;52.614;13.496;2023-06-14T01:30:46;101175.72;;;15.96;47.35
26697;BME280;14312;52.614;13.496;2023-06-14T01:33:35;101175.72;;;15.96;47.52
26697;BME280;14312;52.614;13.496;2023-06-14T01:36:22;101178.16;;;15.98;47.52
26697;BME280;14312;52.614;13.496;2023-06-14T01:39:14;101189.72;;;15.98;47.49
26697;BME280;14312;52.614;13.496;2023-06-14T01:42:01;101180.84;;;15.98;47.36
26697;BME280;14312;52.614;13.496;2023-06-14T01:44:48;101184.59;;;15.97;47.20
26697;BME280;14312;52.614;13.496;2023-06-14T01:47:34;101174.09;;;15.95;47.34
26697;BME280;14312;52.614;13.496;2023-06-14T01:50:21;101175.41;;;15.93;47.39
26697;BME280;14312;52.614;13.496;2023-06-14T01:53:08;101166.53;;;15.87;47.46
26697;BME280;14312;52.614;13.496;2023-06-14T01:55:54;101170.00;;;15.83;47.27
26697;BME280;14312;52.614;13.496;2023-06-14T01:58:40;101170.25;;;15.76;47.39
26697;BME280;14312;52.614;13.496;2023-06-14T02:01:26;101175.03;;;15.69;47.35
26697;BME280;14312;52.614;13.496;2023-06-14T02:04:12;101173.41;;;15.63;47.61
26697;BME280;14312;52.614;13.496;2023-06-14T02:06:59;101166.88;;;15.54;47.91
26697;BME280;14312;52.614;13.496;2023-06-14T02:09:45;101176.00;;;15.53;47.92
26697;BME280;14312;52.614;13.496;2023-06-14T02:12:31;101177.03;;;15.47;47.95
26697;BME280;14312;52.614;13.496;2023-06-14T02:15:17;101180.75;;;15.46;48.20
26697;BME280;14312;52.614;13.496;2023-06-14T02:18:04;101181.28;;;15.43;48.35
26697;BME280;14312;52.614;13.496;2023-06-14T02:20:50;101186.13;;;15.41;48.51
26697;BME280;14312;52.614;13.496;2023-06-14T02:23:36;101180.19;;;15.39;48.54
26697;BME280;14312;52.614;13.496;2023-06-14T02:26:22;101178.56;;;15.38;48.70
26697;BME280;14312;52.614;13.496;2023-06-14T02:29:08;101179.63;;;15.37;48.64
26697;BME280;14312;52.614;13.496;2023-06-14T02:31:56;101177.47;;;15.34;48.63
26697;BME280;14312;52.614;13.496;2023-06-14T02:34:42;101182.28;;;15.32;48.79
26697;BME280;14312;52.614;13.496;2023-06-14T02:37:28;101174.72;;;15.28;48.71
26697;BME280;14312;52.614;13.496;2023-06-14T02:40:14;101187.63;;;15.26;48.88
26697;BME280;14312;52.614;13.496;2023-06-14T02:43:00;101184.63;;;15.23;48.90
26697;BME280;14312;52.614;13.496;2023-06-14T02:45:47;101184.88;;;15.21;48.97
26697;BME280;14312;52.614;13.496;2023-06-14T02:48:33;101192.41;;;15.19;49.12
26697;BME280;14312;52.614;13.496;2023-06-14T02:51:19;101194.53;;;15.17;49.17
26697;BME280;14312;52.614;13.496;2023-06-14T02:54:05;101190.22;;;15.16;49.28
26697;BME280;14312;52.614;13.496;2023-06-14T02:56:51;101186.72;;;15.16;49.33
26697;BME280;14312;52.614;13.496;2023-06-14T02:59:37;101184.28;;;15.14;49.34
26697;BME280;14312;52.614;13.496;2023-06-14T03:02:23;101180.53;;;15.15;49.53
26697;BME280;14312;52.614;13.496;2023-06-14T03:05:09;101189.66;;;15.14;49.68
26697;BME280;14312;52.614;13.496;2023-06-14T03:07:55;101175.16;;;15.15;49.75
26697;BME280;14312;52.614;13.496;2023-06-14T03:10:41;101181.34;;;15.16;49.78
26697;BME280;14312;52.614;13.496;2023-06-14T03:13:29;101183.78;;;15.17;49.97
26697;BME280;14312;52.614;13.496;2023-06-14T03:16:18;101188.63;;;15.20;50.12
26697;BME280;14312;52.614;13.496;2023-06-14T03:19:07;101179.25;;;15.23;50.07
26697;BME280;14312;52.614;13.496;2023-06-14T03:21:53;101180.63;;;15.25;50.24
26697;BME280;14312;52.614;13.496;2023-06-14T03:24:42;101176.34;;;15.29;50.22
26697;BME280;14312;52.614;13.496;2023-06-14T03:27:30;101179.34;;;15.33;50.24
26697;BME280;14312;52.614;13.496;2023-06-14T03:30:16;101177.47;;;15.34;50.22
26697;BME280;14312;52.614;13.496;2023-06-14T03:33:02;101180.69;;;15.36;50.44
26697;BME280;14312;52.614;13.496;2023-06-14T03:35:48;101187.72;;;15.42;50.36
26697;BME280;14312;52.614;13.496;2023-06-14T03:38:35;101188.25;;;15.44;50.37
26697;BME280;14312;52.614;13.496;2023-06-14T03:41:21;101185.06;;;15.47;50.61
26697;BME280;14312;52.614;13.496;2023-06-14T03:44:07;101185.09;;;15.52;50.69
26697;BME280;14312;52.614;13.496;2023-06-14T03:46:53;101191.63;;;15.56;50.59
26697;BME280;14312;52.614;13.496;2023-06-14T03:49:39;101189.78;;;15.61;50.75
26697;BME280;14312;52.614;13.496;2023-06-14T03:52:26;101194.91;;;15.68;50.76
26697;BME280;14312;52.614;13.496;2023-06-14T03:55:12;101203.00;;;15.73;50.80
26697;BME280;14312;52.614;13.496;2023-06-14T03:57:59;101202.75;;;15.80;50.79
26697;BME280;14312;52.614;13.496;2023-06-14T04:00:45;101207.91;;;15.86;50.97
26697;BME280;14312;52.614;13.496;2023-06-14T04:03:31;101210.09;;;15.94;51.00
26697;BME280;14312;52.614;13.496;2023-06-14T04:06:19;101206.91;;;16.02;51.01
26697;BME280;14312;52.614;13.496;2023-06-14T04:09:05;101219.06;;;16.10;51.01
26697;BME280;14312;52.614;13.496;2023-06-14T04:11:54;101217.50;;;16.19;51.51
26697;BME280;14312;52.614;13.496;2023-06-14T04:14:40;101224.25;;;16.27;50.76
26697;BME280;14312;52.614;13.496;2023-06-14T04:17:26;101219.44;;;16.34;50.81
26697;BME280;14312;52.614;13.496;2023-06-14T04:20:12;101217.81;;;16.43;51.02
26697;BME280;14312;52.614;13.496;2023-06-14T04:23:11;101224.06;;;16.54;52.35
26697;BME280;14312;52.614;13.496;2023-06-14T04:25:58;101223.59;;;16.62;50.80
26697;BME280;14312;52.614;13.496;2023-06-14T04:28:48;101219.56;;;16.69;50.91
26697;BME280;14312;52.614;13.496;2023-06-14T04:31:35;101222.00;;;16.76;50.81
26697;BME280;14312;52.614;13.496;2023-06-14T04:34:23;101223.88;;;16.80;50.60
26697;BME280;14312;52.614;13.496;2023-06-14T04:37:09;101228.47;;;16.90;50.79
26697;BME280;14312;52.614;13.496;2023-06-14T04:39:55;101217.44;;;16.97;50.79
26697;BME280;14312;52.614;13.496;2023-06-14T04:42:41;101218.81;;;17.04;50.82
26697;BME280;14312;52.614;13.496;2023-06-14T04:45:30;101228.25;;;17.12;51.05
26697;BME280;14312;52.614;13.496;2023-06-14T04:48:17;101226.09;;;17.19;51.01
26697;BME280;14312;52.614;13.496;2023-06-14T04:51:05;101235.22;;;17.28;50.95
26697;BME280;14312;52.614;13.496;2023-06-14T04:53:51;101233.63;;;17.37;50.75
26697;BME280;14312;52.614;13.496;2023-06-14T04:56:38;101225.00;;;17.45;50.81
26697;BME280;14312;52.614;13.496;2023-06-14T04:59:24;101229.53;;;17.55;50.98
26697;BME280;14312;52.614;13.496;2023-06-14T05:02:10;101232.53;;;17.64;50.80
26697;BME280;14312;52.614;13.496;2023-06-14T05:04:57;101223.91;;;17.72;50.68
26697;BME280;14312;52.614;13.496;2023-06-14T05:07:43;101219.03;;;17.79;50.82
26697;BME280;14312;52.614;13.496;2023-06-14T05:10:29;101232.75;;;17.87;50.69
26697;BME280;14312;52.614;13.496;2023-06-14T05:13:15;101227.91;;;17.94;50.51
26697;BME280;14312;52.614;13.496;2023-06-14T05:16:01;101225.97;;;18.00;50.48
26697;BME280;14312;52.614;13.496;2023-06-14T05:18:47;101227.06;;;18.04;50.52
26697;BME280;14312;52.614;13.496;2023-06-14T05:21:33;101227.31;;;18.08;50.69
26697;BME280;14312;52.614;13.496;2023-06-14T05:24:20;101231.06;;;18.17;50.54
26697;BME280;14312;52.614;13.496;2023-06-14T05:27:06;101228.59;;;18.25;50.79
26697;BME280;14312;52.614;13.496;2023-06-14T05:29:52;101237.72;;;18.34;50.46
26697;BME280;14312;52.614;13.496;2023-06-14T05:32:41;101243.09;;;18.45;50.60
26697;BME280;14312;52.614;13.496;2023-06-14T05:35:27;101245.72;;;18.55;50.30
26697;BME280;14312;52.614;13.496;2023-06-14T05:38:13;101250.56;;;18.63;50.33
26697;BME280;14312;52.614;13.496;2023-06-14T05:40:59;101245.66;;;18.70;50.26
26697;BME280;14312;52.614;13.496;2023-06-14T05:43:45;101253.47;;;18.76;49.94
26697;BME280;14312;52.614;13.496;2023-06-14T05:46:31;101252.63;;;18.81;50.26
26697;BME280;14312;52.614;13.496;2023-06-14T05:49:17;101258.53;;;18.88;49.90
26697;BME280;14312;52.614;13.496;2023-06-14T05:52:03;101256.59;;;18.94;49.90
26697;BME280;14312;52.614;13.496;2023-06-14T05:54:49;101254.66;;;18.99;50.06
26697;BME280;14312;52.614;13.496;2023-06-14T05:57:35;101253.53;;;19.05;50.22
26697;BME280;14312;52.614;13.496;2023-06-14T06:00:21;101263.75;;;19.13;49.97
26697;BME280;14312;52.614;13.496;2023-06-14T06:03:07;101263.16;;;19.22;49.97
26697;BME280;14312;52.614;13.496;2023-06-14T06:05:55;101263.66;;;19.29;49.91
26697;BME280;14312;52.614;13.496;2023-06-14T06:08:41;101254.94;;;19.37;49.73
26697;BME280;14312;52.614;13.496;2023-06-14T06:11:27;101260.00;;;19.43;49.81
26697;BME280;14312;52.614;13.496;2023-06-14T06:14:13;101263.50;;;19.49;49.57
26697;BME280;14312;52.614;13.496;2023-06-14T06:16:59;101264.25;;;19.54;49.70
26697;BME280;14312;52.614;13.496;2023-06-14T06:19:45;101262.63;;;19.59;49.38
26697;BME280;14312;52.614;13.496;2023-06-14T06:22:31;101257.75;;;19.61;49.60
26697;BME280;14312;52.614;13.496;2023-06-14T06:25:17;101261.75;;;19.63;49.61
26697;BME280;14312;52.614;13.496;2023-06-14T06:28:04;101253.66;;;19.63;49.71
26697;BME280;14312;52.614;13.496;2023-06-14T06:30:50;101251.47;;;19.65;49.21
26697;BME280;14312;52.614;13.496;2023-06-14T06:33:36;101257.91;;;19.69;49.35
26697;BME280;14312;52.614;13.496;2023-06-14T06:36:22;101246.53;;;19.72;49.41
26697;BME280;14312;52.614;13.496;2023-06-14T06:39:08;101248.66;;;19.75;49.19
26697;BME280;14312;52.614;13.496;2023-06-14T06:41:57;101249.19;;;19.77;49.22
26697;BME280;14312;52.614;13.496;2023-06-14T06:44:43;101257.00;;;19.79;49.08
26697;BME280;14312;52.614;13.496;2023-06-14T06:47:29;101254.25;;;19.84;49.26
26697;BME280;14312;52.614;13.496;2023-06-14T06:50:15;101257.19;;;19.87;49.19
26697;BME280;14312;52.614;13.496;2023-06-14T06:53:01;101254.97;;;19.94;49.64
26697;BME280;14312;52.614;13.496;2023-06-14T06:55:47;101250.00;;;20.02;49.58
26697;BME280;14312;52.614;13.496;2023-06-14T06:58:33;101255.88;;;20.09;49.66
26697;BME280;14312;52.614;13.496;2023-06-14T07:01:20;101266.56;;;20.19;49.38
26697;BME280;14312;52.614;13.496;2023-06-14T07:04:06;101263.47;;;20.30;49.70
26697;BME280;14312;52.614;13.496;2023-06-14T07:06:52;101281.22;;;20.42;49.56
26697;BME280;14312;52.614;13.496;2023-06-14T07:09:38;101275.09;;;20.55;49.52
26697;BME280;14312;52.614;13.496;2023-06-14T07:12:24;101279.00;;;20.67;49.27
26697;BME280;14312;52.614;13.496;2023-06-14T07:15:10;101281.00;;;20.81;49.19
26697;BME280;14312;52.614;13.496;2023-06-14T07:17:56;101289.50;;;20.93;48.97
26697;BME280;14312;52.614;13.496;2023-06-14T07:20:45;101282.00;;;21.03;48.80
26697;BME280;14312;52.614;13.496;2023-06-14T07:23:31;101292.72;;;21.14;48.66
26697;BME280;14312;52.614;13.496;2023-06-14T07:26:17;101295.59;;;21.22;48.17
26697;BME280;14312;52.614;13.496;2023-06-14T07:29:03;101294.41;;;21.28;48.37
26697;BME280;14312;52.614;13.496;2023-06-14T07:31:49;101294.84;;;21.35;48.02
26697;BME280;14312;52.614;13.496;2023-06-14T07:34:35;101284.44;;;21.42;48.10
26697;BME280;14312;52.614;13.496;2023-06-14T07:37:21;101284.84;;;21.49;48.21
26697;BME280;14312;52.614;13.496;2023-06-14T07:40:07;101290.13;;;21.60;48.00
26697;BME280;14312;52.614;13.496;2023-06-14T07:42:53;101288.03;;;21.70;47.89
26697;BME280;14312;52.614;13.496;2023-06-14T07:45:40;101293.97;;;21.86;47.84
26697;BME280;14312;52.614;13.496;2023-06-14T07:48:26;101298.06;;;22.02;48.10
26697;BME280;14312;52.614;13.496;2023-06-14T07:51:12;101297.66;;;22.22;48.14
26697;BME280;14312;52.614;13.496;2023-06-14T07:53:59;101291.22;;;22.46;47.71
26697;BME280;14312;52.614;13.496;2023-06-14T07:56:47;101278.31;;;22.65;47.51
26697;BME280;14312;52.614;13.496;2023-06-14T07:59:33;101284.75;;;22.83;46.97
26697;BME280;14312;52.614;13.496;2023-06-14T08:02:19;101284.41;;;22.98;46.79
26697;BME280;14312;52.614;13.496;2023-06-14T08:05:05;101278.91;;;23.12;46.48
26697;BME280;14312;52.614;13.496;2023-06-14T08:07:51;101280.78;;;23.25;46.44
26697;BME280;14312;52.614;13.496;2023-06-14T08:10:38;101268.53;;;23.36;46.22
26697;BME280;14312;52.614;13.496;2023-06-14T08:13:25;101278.56;;;23.49;46.10
26697;BME280;14312;52.614;13.496;2023-06-14T08:16:12;101271.28;;;23.58;45.85
26697;BME280;14312;52.614;13.496;2023-06-14T08:19:00;101267.66;;;23.71;45.58
26697;BME280;14312;52.614;13.496;2023-06-14T08:21:49;101272.34;;;23.79;45.25
26697;BME280;14312;52.614;13.496;2023-06-14T08:24:36;101265.97;;;23.84;44.83
26697;BME280;14312;52.614;13.496;2023-06-14T08:27:22;101272.22;;;23.85;44.86
26697;BME280;14312;52.614;13.496;2023-06-14T08:30:10;101266.75;;;23.85;44.38
26697;BME280;14312;52.614;13.496;2023-06-14T08:32:57;101263.53;;;23.83;44.50
26697;BME280;14312;52.614;13.496;2023-06-14T08:35:44;101267.22;;;23.78;44.42
26697;BME280;14312;52.614;13.496;2023-06-14T08:38:30;101269.28;;;23.72;44.50
26697;BME280;14312;52.614;13.496;2023-06-14T08:41:23;101265.41;;;23.73;44.32
26697;BME280;14312;52.614;13.496;2023-06-14T08:44:17;101268.63;;;23.75;44.62
26697;BME280;14312;52.614;13.496;2023-06-14T08:47:06;101269.63;;;23.79;44.56
26697;BME280;14312;52.614;13.496;2023-06-14T08:49:53;101264.53;;;23.87;44.53
26697;BME280;14312;52.614;13.496;2023-06-14T08:52:45;101261.84;;;23.95;44.51
26697;BME280;14312;52.614;13.496;2023-06-14T08:55:36;101257.53;;;24.03;44.45
26697;BME280;14312;52.614;13.496;2023-06-14T08:58:25;101261.91;;;24.12;44.05
26697;BME280;14312;52.614;13.496;2023-06-14T09:01:11;101270.72;;;24.18;44.00
26697;BME280;14312;52.614;13.496;2023-06-14T09:04:03;101260.06;;;24.22;43.70
26697;BME280;14312;52.614;13.496;2023-06-14T09:06:51;101259.25;;;24.21;43.40
26697;BME280;14312;52.614;13.496;2023-06-14T09:09:41;101259.84;;;24.18;43.12
26697;BME280;14312;52.614;13.496;2023-06-14T09:12:30;101278.41;;;24.16;42.92
26697;BME280;14312;52.614;13.496;2023-06-14T09:15:16;101280.16;;;24.12;43.02
26697;BME280;14312;52.614;13.496;2023-06-14T09:18:03;101282.28;;;24.15;43.24
26697;BME280;14312;52.614;13.496;2023-06-14T09:20:49;101281.84;;;24.22;43.51
26697;BME280;14312;52.614;13.496;2023-06-14T09:23:39;101283.34;;;24.36;43.67
26697;BME280;14312;52.614;13.496;2023-06-14T09:26:25;101284.81;;;24.51;43.67
26697;BME280;14312;52.614;13.496;2023-06-14T09:29:13;101278.88;;;24.66;43.06
26697;BME280;14312;52.614;13.496;2023-06-14T09:31:59;101274.91;;;24.81;42.97
26697;BME280;14312;52.614;13.496;2023-06-14T09:34:45;101278.31;;;24.95;43.22
26697;BME280;14312;52.614;13.496;2023-06-14T09:37:32;101277.34;;;25.08;42.88
26697;BME280;14312;52.614;13.496;2023-06-14T09:40:21;101280.25;;;25.20;42.39
26697;BME280;14312;52.614;13.496;2023-06-14T09:43:07;101275.09;;;25.27;42.24
26697;BME280;14312;52.614;13.496;2023-06-14T09:45:56;101274.75;;;25.38;42.34
26697;BME280;14312;52.614;13.496;2023-06-14T09:48:42;101272.00;;;25.46;41.75
26697;BME280;14312;52.614;13.496;2023-06-14T09:51:29;101271.50;;;25.53;41.48
26697;BME280;14312;52.614;13.496;2023-06-14T09:54:22;101278.41;;;25.59;41.34
26697;BME280;14312;52.614;13.496;2023-06-14T09:57:11;101278.75;;;25.57;41.23
26697;BME280;14312;52.614;13.496;2023-06-14T09:59:57;101283.53;;;25.52;41.22
26697;BME280;14312;52.614;13.496;2023-06-14T10:02:54;101278.88;;;25.52;41.27
26697;BME280;14312;52.614;13.496;2023-06-14T10:05:47;101280.69;;;25.48;41.21
26697;BME280;14312;52.614;13.496;2023-06-14T10:08:35;101275.06;;;25.45;40.67
26697;BME280;14312;52.614;13.496;2023-06-14T10:11:23;101279.56;;;25.41;40.78
26697;BME280;14312;52.614;13.496;2023-06-14T10:14:11;101281.81;;;25.39;41.19
26697;BME280;14312;52.614;13.496;2023-06-14T10:17:12;101278.75;;;25.40;40.93
26697;BME280;14312;52.614;13.496;2023-06-14T10:20:15;101275.72;;;25.42;40.80
26697;BME280;14312;52.614;13.496;2023-06-14T10:23:11;101265.75;;;25.46;40.55
26697;BME280;14312;52.614;13.496;2023-06-14T10:25:59;101272.16;;;25.50;40.67
26697;BME280;14312;52.614;13.496;2023-06-14T10:28:56;101269.75;;;25.57;40.26
26697;BME280;14312;52.614;13.496;2023-06-14T10:31:46;101271.19;;;25.63;40.48
26697;BME280;14312;52.614;13.496;2023-06-14T10:34:33;101263.31;;;25.70;40.36
26697;BME280;14312;52.614;13.496;2023-06-14T10:37:18;101268.88;;;25.82;40.32
26697;BME280;14312;52.614;13.496;2023-06-14T10:40:06;101255.34;;;25.94;40.05
26697;BME280;14312;52.614;13.496;2023-06-14T10:42:54;101258.19;;;26.06;40.05
26697;BME280;14312;52.614;13.496;2023-06-14T10:49:02;101247.97;;;26.24;39.39
26697;BME280;14312;52.614;13.496;2023-06-14T10:51:50;101235.88;;;26.34;39.36
26697;BME280;14312;52.614;13.496;2023-06-14T10:54:37;101234.88;;;26.38;39.54
26697;BME280;14312;52.614;13.496;2023-06-14T10:57:24;101235.75;;;26.51;39.38
26697;BME280;14312;52.614;13.496;2023-06-14T11:00:10;101230.50;;;26.67;39.43
26697;BME280;14312;52.614;13.496;2023-06-14T11:06:14;101225.66;;;27.26;38.76
26697;BME280;14312;52.614;13.496;2023-06-14T11:09:27;101224.50;;;27.60;38.32
26697;BME280;14312;52.614;13.496;2023-06-14T11:12:23;101216.41;;;27.88;38.18
26697;BME280;14312;52.614;13.496;2023-06-14T11:15:10;101215.50;;;28.08;37.60
26697;BME280;14312;52.614;13.496;2023-06-14T11:17:57;101221.44;;;28.22;37.34
26697;BME280;14312;52.614;13.496;2023-06-14T11:20:46;101216.41;;;28.36;36.61
26697;BME280;14312;52.614;13.496;2023-06-14T11:23:32;101217.75;;;28.42;36.58
26697;BME280;14312;52.614;13.496;2023-06-14T11:26:28;101201.97;;;28.52;36.01
26697;BME280;14312;52.614;13.496;2023-06-14T11:29:15;101205.97;;;28.54;35.74
26697;BME280;14312;52.614;13.496;2023-06-14T11:32:02;101206.78;;;28.55;35.17
26697;BME280;14312;52.614;13.496;2023-06-14T11:34:49;101195.13;;;28.46;35.26
26697;BME280;14312;52.614;13.496;2023-06-14T11:37:37;101199.16;;;28.36;35.23
26697;BME280;14312;52.614;13.496;2023-06-14T11:40:25;101189.22;;;28.31;35.21
26697;BME280;14312;52.614;13.496;2023-06-14T11:43:11;101185.59;;;28.27;35.16
26697;BME280;14312;52.614;13.496;2023-06-14T11:45:58;101183.28;;;28.29;35.43
26697;BME280;14312;52.614;13.496;2023-06-14T11:48:44;101182.00;;;28.39;35.68
26697;BME280;14312;52.614;13.496;2023-06-14T11:51:32;101176.03;;;28.49;34.88
26697;BME280;14312;52.614;13.496;2023-06-14T11:54:19;101176.16;;;28.53;34.71
26697;BME280;14312;52.614;13.496;2023-06-14T11:57:06;101171.53;;;28.57;34.82
26697;BME280;14312;52.614;13.496;2023-06-14T11:59:54;101164.88;;;28.70;34.87
26697;BME280;14312;52.614;13.496;2023-06-14T12:02:41;101161.84;;;28.87;34.87
26697;BME280;14312;52.614;13.496;2023-06-14T12:05:27;101154.66;;;29.10;34.61
26697;BME280;14312;52.614;13.496;2023-06-14T12:08:13;101157.69;;;29.37;34.46
26697;BME280;14312;52.614;13.496;2023-06-14T12:11:03;101151.59;;;29.59;34.35
26697;BME280;14312;52.614;13.496;2023-06-14T12:13:49;101147.03;;;29.82;34.05
26697;BME280;14312;52.614;13.496;2023-06-14T12:16:37;101147.25;;;30.09;33.79
26697;BME280;14312;52.614;13.496;2023-06-14T12:19:25;101139.56;;;30.33;33.36
26697;BME280;14312;52.614;13.496;2023-06-14T12:22:13;101127.84;;;30.56;33.33
26697;BME280;14312;52.614;13.496;2023-06-14T12:24:59;101127.44;;;30.77;32.78
26697;BME280;14312;52.614;13.496;2023-06-14T12:27:46;101119.16;;;30.96;33.17
26697;BME280;14312;52.614;13.496;2023-06-14T12:30:33;101116.38;;;31.15;32.41
26697;BME280;14312;52.614;13.496;2023-06-14T12:33:19;101110.50;;;31.39;32.18
26697;BME280;14312;52.614;13.496;2023-06-14T12:36:07;101114.47;;;31.65;31.69
26697;BME280;14312;52.614;13.496;2023-06-14T12:38:53;101104.06;;;31.81;31.44
26697;BME280;14312;52.614;13.496;2023-06-14T12:41:39;101109.88;;;32.02;31.24
26697;BME280;14312;52.614;13.496;2023-06-14T12:44:27;101111.69;;;32.17;31.34
26697;BME280;14312;52.614;13.496;2023-06-14T12:47:13;101094.53;;;32.35;30.74
26697;BME280;14312;52.614;13.496;2023-06-14T12:49:59;101097.47;;;32.49;30.71
26697;BME280;14312;52.614;13.496;2023-06-14T12:52:45;101101.94;;;32.60;30.20
26697;BME280;14312;52.614;13.496;2023-06-14T12:55:31;101099.63;;;32.66;29.80
26697;BME280;14312;52.614;13.496;2023-06-14T12:58:17;101100.00;;;32.64;29.17
26697;BME280;14312;52.614;13.496;2023-06-14T13:01:05;101092.38;;;32.54;28.82
26697;BME280;14312;52.614;13.496;2023-06-14T13:03:51;101087.41;;;32.34;28.72
26697;BME280;14312;52.614;13.496;2023-06-14T13:06:39;101093.41;;;32.09;28.21
26697;BME280;14312;52.614;13.496;2023-06-14T13:09:25;101091.53;;;31.87;28.46
26697;BME280;14312;52.614;13.496;2023-06-14T13:12:12;101076.75;;;31.72;28.95
26697;BME280;14312;52.614;13.496;2023-06-14T13:14:58;101081.06;;;31.70;28.95
26697;BME280;14312;52.614;13.496;2023-06-14T13:17:44;101084.59;;;31.70;28.86
26697;BME280;14312;52.614;13.496;2023-06-14T13:20:34;101087.84;;;31.76;28.93
26697;BME280;14312;52.614;13.496;2023-06-14T13:23:20;101078.50;;;31.84;28.34
26697;BME280;14312;52.614;13.496;2023-06-14T13:26:15;101088.44;;;31.92;28.44
26697;BME280;14312;52.614;13.496;2023-06-14T13:29:06;101072.84;;;32.03;28.62
26697;BME280;14312;52.614;13.496;2023-06-14T13:31:52;101080.91;;;32.15;28.40
26697;BME280;14312;52.614;13.496;2023-06-14T13:34:38;101073.53;;;32.26;28.24
26697;BME280;14312;52.614;13.496;2023-06-14T13:37:24;101069.31;;;32.36;27.65
26697;BME280;14312;52.614;13.496;2023-06-14T13:40:11;101067.06;;;32.45;27.35
26697;BME280;14312;52.614;13.496;2023-06-14T13:42:57;101063.16;;;32.50;27.54
26697;BME280;14312;52.614;13.496;2023-06-14T13:45:42;101061.50;;;32.42;27.19
26697;BME280;14312;52.614;13.496;2023-06-14T13:48:29;101059.75;;;32.26;26.73
26697;BME280;14312;52.614;13.496;2023-06-14T13:51:15;101061.81;;;32.03;26.39
26697;BME280;14312;52.614;13.496;2023-06-14T13:54:03;101068.13;;;31.74;26.31
26697;BME280;14312;52.614;13.496;2023-06-14T13:56:49;101064.88;;;31.42;26.85
26697;BME280;14312;52.614;13.496;2023-06-14T13:59:36;101069.13;;;31.13;26.58
26697;BME280;14312;52.614;13.496;2023-06-14T14:02:21;101071.00;;;30.86;27.21
26697;BME280;14312;52.614;13.496;2023-06-14T14:05:08;101062.59;;;30.56;27.52
26697;BME280;14312;52.614;13.496;2023-06-14T14:07:55;101066.72;;;30.27;27.63
26697;BME280;14312;52.614;13.496;2023-06-14T14:10:42;101058.28;;;29.98;28.10
26697;BME280;14312;52.614;13.496;2023-06-14T14:13:28;101065.59;;;29.74;28.22
26697;BME280;14312;52.614;13.496;2023-06-14T14:16:14;101064.13;;;29.61;28.38
26697;BME280;14312;52.614;13.496;2023-06-14T14:19:00;101073.63;;;29.48;28.78
26697;BME280;14312;52.614;13.496;2023-06-14T14:21:47;101073.25;;;29.34;28.70
26697;BME280;14312;52.614;13.496;2023-06-14T14:24:33;101073.63;;;29.16;28.93
26697;BME280;14312;52.614;13.496;2023-06-14T14:27:19;101078.56;;;28.95;28.74
26697;BME280;14312;52.614;13.496;2023-06-14T14:30:06;101082.59;;;28.70;28.87
26697;BME280;14312;52.614;13.496;2023-06-14T14:32:52;101075.59;;;28.44;28.98